KFOK/FOK METAR and TAF weather

Enter ICAO airport designator
Station Type Date Time Source
KFOK METAR 2022/05/26 03:53 UTC NOAA

KFOK 260353Z AUTO 00000KT 10SM CLR 06/03 A3040 RMK AO2 SLP293 T00560033


Station Type Date Time Source
KFOK Decoded METAR 2022/05/26 03:53 UTC NOAA

THE GABRESKI AIRPORT, NY, United States (KFOK) 40-51N 072-37W 33M
May 25, 2022 - 11:53 PM EDT / 2022.05.26 0353 UTC
Wind: Calm:0
Visibility: 10 mile(s):0
Sky conditions: clear
Temperature: 42.1 F (5.6 C)
Dew Point: 37.9 F (3.3 C)
Relative Humidity: 85%
Pressure (altimeter): 30.4 in. Hg (1029 hPa)
ob: KFOK 260353Z AUTO 00000KT 10SM CLR 06/03 A3040 RMK AO2 SLP293 T00560033
cycle: 4

Station Type Date Time Source
KFOK TAF UTC NOAA

Error!

Example: see airport list